Weather Top, Arizona (BMGR) Weather observations

Data are for 10 minute period ending at time listed.
 Day   Time   Solar   Ave.   Ave.  Ave.  Vector  Max.   Total    
  of    of     Rad.   Air    Rel.  Wind   Wind   Wind  Precip.   
Year   Day            Temp.  Hum.  Speed  Dir.   Gust            
2026   (MST)  Kw/m2    F      %     mph   deg.    mph    in.     
-----------------------------------------------------------------
 245    2:35   0.00   80.6    58    3.5   205     6.5    0.00 
 245    2:40   0.00   80.5    58    4.3   202     6.0    0.00 
 245    2:45   0.00   80.7    57    5.5   219     8.2    0.00 
 245    2:50   0.00   80.8    56    5.1   230    10.5    0.00 
 245    2:55   0.00   80.8    56    4.3   228     8.2    0.00 
 245    3:00   0.00   80.5    57    4.1   233     7.7    0.00 
 245    3:05   0.00   80.1    58    2.5   229     4.9    0.00 
 245    3:10   0.00   79.8    59    4.1   224     8.2    0.00 
 245    3:15   0.00   79.9    58    4.9   219     8.8    0.00 
 245    3:20   0.00   79.9    57    5.0   219    11.0    0.00 
 245    3:25   0.00   79.8    56    6.5   210    10.5    0.00 
 245    3:30   0.00   79.4    57    4.4   191     7.7    0.00 
 245    3:35   0.00   78.7    60    2.2   150     5.4    0.00 
 245    3:40   0.00   78.3    59    2.1   159     6.0    0.00 
 245    3:45   0.00   78.3    59    1.6   147     4.9    0.00 
 245    3:50   0.00   78.1    60    2.6   120     5.4    0.00 
 245    3:55   0.00   78.1    58    4.7   193     8.8    0.00 
 245    4:00   0.00   78.3    56    5.2   188     8.2    0.00 
 245    4:05   0.00   78.3    55    5.7   181     8.8    0.00 
 245    4:10   0.00   78.5    53    6.3   193     9.9    0.00 
 245    4:15   0.00   79.1    51    6.6   202     9.9    0.00 
 245    4:20   0.00   79.1    50    6.5   199     9.9    0.00 
 245    4:25   0.00   78.9    50    4.7   186     7.1    0.00 
 245    4:30   0.00   78.5    52    3.7   169     7.1    0.00 
 245    4:35   0.00   77.8    57    3.9   118     6.0    0.00 
 245    4:40   0.00   77.6    58    4.2   113     7.1    0.00 
 245    4:45   0.00   77.6    58    4.7   121     7.1    0.00 
 245    4:50   0.00   77.6    58    4.3   134     7.1    0.00 
 245    4:55   0.00   77.7    58    3.8   159     7.1    0.00 
 245    5:00   0.00   77.7    57    3.6   138     6.0    0.00 
 245    5:05   0.00   77.5    58    3.5   145     6.0    0.00 
 245    5:10   0.00   77.5    58    3.2   156     5.4    0.00 
 245    5:15   0.00   78.2    52    4.6   202     8.8    0.00 
 245    5:20   0.00   78.8    50    3.4   234     7.7    0.00 
 245    5:25   0.00   78.8    49    3.2   202     6.5    0.00 
 245    5:30   0.00   78.4    51    2.3   175     5.4    0.00 
 245    5:35   0.00   77.8    53    4.1   182     9.3    0.00 
 245    5:40   0.00   78.4    51    6.3   184    11.6    0.00 
 245    5:45   0.00   78.2    52    5.5   158    12.1    0.00 
 245    5:50   0.00   77.8    53    4.6   130     7.1    0.00 
 245    5:55   0.00   77.7    54    4.7   128     7.1    0.00 
 245    6:00   0.00   77.6    55    4.5   140     8.2    0.00 
 245    6:05   0.00   77.4    56    4.6   151     8.2    0.00 
 245    6:10   0.01   77.4    56    3.7   160     8.8    0.00 
 245    6:15   0.01   77.2    57    1.5   179     4.3    0.00 
 245    6:20   0.02   77.1    57    2.7   155     6.5    0.00 
 245    6:25   0.03   77.6    56    4.8   172     9.3    0.00 
 245    6:30   0.05   77.9    56    5.4   172     9.3    0.00 
 245    6:35   0.06   78.0    56    4.4   142     8.2    0.00 
 245    6:40   0.07   78.0    56    2.6   135     6.5    0.00 
 245    6:45   0.09   78.1    56    3.2   166     7.1    0.00 
 245    6:50   0.10   78.2    57    4.5   155     7.7    0.00 
 245    6:55   0.11   78.4    57    5.9   143     9.3    0.00 
 245    7:00   0.13   78.6    58    6.0   147     8.8    0.00 
 245    7:05   0.14   78.9    58    4.5   162     9.3    0.00 
 245    7:10   0.16   79.1    58    5.5   162     8.8    0.00 
 245    7:15   0.18   79.3    57    5.3   182     8.8    0.00 
 245    7:20   0.17   79.5    57    5.5   187    11.0    0.00 
 245    7:25   0.21   79.5    57    5.2   179     9.9    0.00 
 245    7:30   0.23   79.8    56    6.5   185    12.1    0.00 
 245    7:35   0.24   80.0    56    6.7   182    10.5    0.00 
 245    7:40   0.26   80.1    56    8.0   183    12.7    0.00 
 245    7:45   0.28   80.2    56    6.8   186    14.4    0.00 
 245    7:50   0.30   80.5    56    7.1   179    11.0    0.00 
 245    7:55   0.32   80.7    55    6.8   190    11.0    0.00 
 245    8:00   0.34   80.9    55    6.1   194    11.6    0.00 
 245    8:05   0.36   80.6    55    6.3   216    12.1    0.00 
 245    8:10   0.37   80.7    55    4.6   208     8.8    0.00 
 245    8:15   0.39   81.0    54    3.8   210     7.7    0.00 
 245    8:20   0.41   81.2    54    5.7   214     8.8    0.00 
 245    8:25   0.44   81.4    54    3.5   213     7.7    0.00 
 245    8:30   0.46   81.7    53    6.1   205    11.0    0.00 
 245    8:35   0.48   81.8    53    6.0   220     9.3    0.00 
 245    8:40   0.50   82.1    52    6.2   204    11.0    0.00 
 245    8:45   0.50   82.3    50    6.0   217    10.5    0.00 
 245    8:50   0.52   82.8    50    5.8   202    11.6    0.00 
 245    8:55   0.52   83.4    50    4.0   187     8.2    0.00 
 245    9:00   0.53   83.8    50    3.7   179     8.8    0.00 
 245    9:05   0.54   84.5    48    3.1   192     8.8    0.00 
 245    9:10   0.56   84.6    47    4.8   206     8.2    0.00 
 245    9:15   0.57   83.9    48    6.2   217    11.6    0.00 
 245    9:20   0.59   83.7    48    3.3   196     7.7    0.00 
 245    9:25   0.57   84.9    47    5.2   213     9.9    0.00 
 245    9:30   0.63   84.4    47    7.0   213    12.1    0.00 
 245    9:35   0.53   84.5    46    5.8   219     9.3    0.00 
 245    9:40   0.63   86.1    45    4.2   157    12.7    0.00 
 245    9:45   0.66   87.5    43    4.3   176    10.5    0.00 
 245    9:50   0.66   86.7    42    6.1   216    11.0    0.00 
 245    9:55   0.67   85.9    44    6.2   220    11.6    0.00 
 245   10:00   0.69   86.2    41    7.5   233    12.1    0.00 
 245   10:05   0.70   85.6    42    6.8   210    11.6    0.00 
 245   10:10   0.71   86.0    42    5.4   211     8.8    0.00 
 245   10:15   0.72   86.3    41    6.7   230    11.0    0.00 
 245   10:20   0.73   86.8    40    4.8   220    10.5    0.00 
 245   10:25   0.74   88.7    37    3.3   136     7.7    0.00 
 245   10:30   0.75   89.0    37    4.2   168     8.8    0.00 
 245   10:35   0.76   88.6    35    8.2   200    11.6    0.00 
 245   10:40   0.77   88.0    37    6.5   197    10.5    0.00 
 245   10:45   0.78   90.1    37    3.9   157    11.6    0.00 
 245   10:50   0.79   90.8    34    5.8   196    11.0    0.00 
 245   10:55   0.80   89.4    34    5.4   208    11.6    0.00 
 245   11:00   0.80   89.3    34    6.0   199    11.0    0.00 
 245   11:05   0.81   89.7    34    6.8   220    13.3    0.00 
 245   11:10   0.82   89.8    33    6.4   226    11.6    0.00 
 245   11:15   0.82   89.2    35    8.4   234    13.3    0.00 
 245   11:20   0.83   89.8    33    4.7   236    13.3    0.00 
 245   11:25   0.84   89.8    34    7.9   230    13.3    0.00 
 245   11:30   0.84   89.4    34    7.2   214    12.1    0.00 
 245   11:35   0.85   89.6    32    9.4   200    13.8    0.00 
 245   11:40   0.85   90.1    33    7.0   200    11.0    0.00 
 245   11:45   0.85   89.6    35    4.1   214     8.8    0.00 
 245   11:50   0.85   92.0    33    3.3    68    10.5    0.00 
 245   11:55   0.86   92.9    30    8.4   220    16.0    0.00 
 245   12:00   0.86   91.3    32    6.6   229    12.1    0.00 
 245   12:05   0.87   91.2    32    7.2   217    12.1    0.00 
 245   12:10   0.87   91.9    32    6.3   200    16.0    0.00 
 245   12:15   0.88   91.8    32    6.9   194    12.7    0.00 
 245   12:20   0.87   91.5    33    5.8   212     8.8    0.00 
 245   12:25   0.88   92.0    33    6.8   191    11.0    0.00 
 245   12:30   0.59   94.6    31    6.5   140    12.1    0.00 
 245   12:35   0.89   94.5    31    4.3    87     8.8    0.00 
 245   12:40   0.88   94.6    30    7.9   219    13.3    0.00 
 245   12:45   0.88   92.2    32    4.4   217     9.3    0.00 
 245   12:50   0.91   94.0    31    4.3    85    11.0    0.00 
 245   12:55   0.88   95.3    30    6.2    77    11.0    0.00 
 245   13:00   0.88   95.1    30    5.7    75     9.9    0.00 
 245   13:05   0.88   95.1    30    4.5    67     8.8    0.00 
 245   13:10   0.82   95.8    29    3.4   186     8.8    0.00 
 245   13:15   0.90   94.5    30    4.7    42     9.3    0.00 
 245   13:20   0.89   95.4    29    5.5    78     8.8    0.00 
 245   13:25   0.85   95.7    30    5.1    79     9.3    0.00 
 245   13:30   0.89   94.9    30    6.0    70    11.0    0.00 
 245   13:35   0.88   96.1    28    5.3    68    13.3    0.00 
 245   13:40   0.87   95.8    29    6.5   107    13.3    0.00 
 245   13:45   0.87   96.4    28    6.2   186    10.5    0.00 
 245   13:50   0.88   96.3    28    5.2    86    11.0    0.00 
 245   13:55   0.87   95.6    28    5.0   256    10.5    0.00 
 245   14:00   0.81   94.7    29    6.1   206    13.3    0.00 
 245   14:05   0.41   96.0    28    6.4   218    12.1    0.00 
 245   14:10   0.49   94.8    29    7.6   198    12.7    0.00 
 245   14:15   0.31   94.2    29    6.1   200    11.0    0.00 
 245   14:20   0.85   95.1    29    4.5   165     9.9    0.00 
 245   14:25   0.83   95.1    30    6.3   218    12.7    0.00 
 245   14:30   0.80   95.5    30    5.4   131     9.9    0.00 
 245   14:35   0.82   95.5    30    7.7   233    14.4    0.00 
 245   14:40   0.80   94.5    30    6.3   233    11.6    0.00 
 245   14:45   0.78   95.3    30    6.1   264    11.0    0.00 
 245   14:50   0.76   96.0    29    5.8    89    11.6    0.00 
 245   14:55   0.73   96.6    29    5.7   149    13.3    0.00 
 245   15:00   0.71   96.5    29    5.9   209    11.0    0.00 
 245   15:05   0.69   95.2    30    5.2   291    11.6    0.00 
 245   15:10   0.69   95.7    29    3.5    76     7.7    0.00 
 245   15:15   0.67   95.9    28    5.1    22     9.3    0.00 
 245   15:20   0.64   96.0    27    3.9    87     9.9    0.00 
 245   15:25   0.58   96.7    27    4.3   104     9.9    0.00 
 245   15:30   0.61   98.0    26    4.6    81     8.8    0.00 
 245   15:35   0.61   97.3    27    5.1    56     9.3    0.00 
 245   15:40   0.59   96.8    26    5.5    85    12.1    0.00 
 245   15:45   0.57   96.9    26    7.3   147    14.9    0.00 
 245   15:50   0.56   96.4    26    6.4   154    12.7    0.00 
 245   15:55   0.55   96.4    26    5.6   105    11.6    0.00 
 245   16:00   0.54   96.2    25    6.6    97    12.7    0.00 
 245   16:05   0.52   96.2    26    4.4    60    11.6    0.00 
 245   16:10   0.51   95.8    26    5.0    61    11.0    0.00 
 245   16:15   0.50   96.5    26    5.7    80     9.9    0.00 
 245   16:20   0.19   95.3    28    5.3    77     9.9    0.00 
 245   16:25   0.11   93.0    29    3.5   263     9.9    0.00 
 245   16:30   0.28   93.7    29    3.4   232     8.2    0.00 
 245   16:35   0.26   93.9    30    6.8   220    12.1    0.00 
 245   16:40   0.32   94.2    30    6.4   227    10.5    0.00 
 245   16:45   0.40   94.5    30    6.0    81    11.0    0.00 
 245   16:50   0.47   94.7    30    4.4    74     9.9    0.00 
 245   16:55   0.42   95.2    29    4.9    89    10.5    0.00 
 245   17:00   0.39   94.7    29    6.5   235    13.3    0.00 
 245   17:05   0.36   95.3    30    5.7   112    13.3    0.00 
 245   17:10   0.35   95.0    33    6.4    70    13.8    0.00 
 245   17:15   0.33   94.5    34    5.6   221    10.5    0.00 
 245   17:20   0.23   94.4    34    5.3   104    15.5    0.00 
 245   17:25   0.12   93.2    35    4.3    87     8.2    0.00 
 245   17:30   0.18   92.1    36    5.8    92    10.5    0.00 
 245   17:35   0.23   92.7    36    5.4    94     9.9    0.00 
 245   17:40   0.22   93.3    35    4.3    84     7.7    0.00 
 245   17:45   0.20   93.4    35    5.1   100    12.1    0.00 
 245   17:50   0.19   93.1    34    4.5    74     9.3    0.00 
 245   17:55   0.20   92.5    34    5.2    76     8.2    0.00 
 245   18:00   0.19   92.8    34    4.5    70     8.2    0.00 
 245   18:05   0.15   92.8    34    4.3    91     8.2    0.00 
 245   18:10   0.13   92.6    34    4.3    75     8.2    0.00 
 245   18:15   0.08   92.0    34    3.4    76     8.2    0.00 
 245   18:20   0.06   91.5    35    3.9    81     7.7    0.00 
 245   18:25   0.08   91.3    34    4.0   100     8.2    0.00 
 245   18:30   0.06   91.1    35    4.4    76     8.8    0.00 
 245   18:35   0.06   90.7    36    3.9    84     8.2    0.00 
 245   18:40   0.06   90.7    37    3.2    72     6.0    0.00 
 245   18:45   0.04   90.3    38    3.3   128     7.7    0.00 
 245   18:50   0.03   90.6    37    3.1   162     6.5    0.00 
 245   18:55   0.02   90.4    37    5.0   167     7.1    0.00 
 245   19:00   0.01   88.4    37    2.6   147     4.9    0.00 
 245   19:05   0.00   87.5    39    4.1   171     7.1    0.00 
 245   19:10   0.00   87.2    40    4.4   180     7.7    0.00 
 245   19:15   0.00   86.6    42    3.8   183     6.0    0.00 
 245   19:20   0.00   86.8    42    4.5   212     6.5    0.00 
 245   19:25   0.00   87.5    42    6.3   226     9.3    0.00 
 245   19:30   0.00   88.0    41    6.4   234    10.5    0.00 
 245   19:35   0.00   88.2    40    6.5   233    11.6    0.00 
 245   19:40   0.00   88.2    40    6.3   233     9.3    0.00 
 245   19:45   0.00   88.2    40    6.1   232    10.5    0.00 
 245   19:50   0.00   88.1    40    5.3   218    11.6    0.00 
 245   19:55   0.00   87.9    40    3.3    91     7.7    0.00 
 245   20:00   0.00   87.9    40    4.3   160     8.8    0.00 
 245   20:05   0.00   87.8    40    3.9   214     8.2    0.00 
 245   20:10   0.00   87.7    40    3.1   189     7.1    0.00 
 245   20:15   0.00   87.5    40    3.7   164     7.7    0.00 
 245   20:20   0.00   87.3    40    4.8   138     8.8    0.00 
 245   20:25   0.00   87.2    40    4.1    82     7.1    0.00 
 245   20:30   0.00   86.9    41    3.5    83     8.2    0.00 
 245   20:35   0.00   86.8    41    2.2    88     6.0    0.00 
 245   20:40   0.00   86.6    41    3.0   166     7.1    0.00 
 245   20:45   0.00   86.6    42    3.4   170     7.7    0.00 
 245   20:50   0.00   86.6    42    4.8   216    11.0    0.00 
 245   20:55   0.00   86.6    42    6.1   217     9.9    0.00 
 245   21:00   0.00   86.5    42    6.2   216    10.5    0.00 
 245   21:05   0.00   86.3    42    6.0   217    11.6    0.00 
 245   21:10   0.00   86.2    42    7.1   231    11.0    0.00 
 245   21:15   0.00   86.0    43    7.0   232    12.1    0.00 
 245   21:20   0.00   85.8    44    7.7   230    11.6    0.00 
 245   21:25   0.00   85.7    44    7.3   230    12.7    0.00 
 245   21:30   0.00   85.4    45    6.8   236    12.1    0.00 
 245   21:35   0.00   85.3    46    6.6   233     9.3    0.00 
 245   21:40   0.00   85.1    47    6.9   230    11.6    0.00 
 245   21:45   0.00   84.9    48    5.9   214    11.0    0.00 
 245   21:50   0.00   84.7    48    6.5   227    10.5    0.00 
 245   21:55   0.00   84.4    49    7.4   230    11.6    0.00 
 245   22:00   0.00   84.1    50    8.7   232    14.9    0.00 
 245   22:05   0.00   83.9    50    8.9   227    15.5    0.00 
 245   22:10   0.00   83.8    50    7.5   229    12.1    0.00 
 245   22:15   0.00   83.6    49    7.6   231    12.7    0.00 
 245   22:20   0.00   83.6    49    6.7   233     9.9    0.00 
 245   22:25   0.00   83.5    49    5.9   226    10.5    0.00 
 245   22:30   0.00   83.3    49    5.1   226     9.9    0.00 
 245   22:35   0.00   83.2    49    5.8   219     9.9    0.00 
 245   22:40   0.00   83.1    50    7.6   204    11.6    0.00 
 245   22:45   0.00   82.8    52    6.9   212    13.8    0.00 
 245   22:50   0.00   82.6    54    7.6   214    12.1    0.00 
 245   22:55   0.00   82.4    54    8.5   214    13.3    0.00 
 245   23:00   0.00   82.3    55    5.7   210    11.6    0.00 
 245   23:05   0.00   82.1    56    7.1   213    11.0    0.00 
 245   23:10   0.00   82.0    56    6.9   213    11.0    0.00 
 245   23:15   0.00   81.8    57    6.9   223    12.7    0.00 
 245   23:20   0.00   81.7    58    6.2   214    12.1    0.00 
 245   23:25   0.00   81.5    58    7.2   212    11.6    0.00 
 245   23:30   0.00   81.5    58    6.0   206     8.2    0.00 
 245   23:35   0.00   81.3    59    6.2   199     9.9    0.00 
 245   23:40   0.00   81.2    60    5.8   210    11.0    0.00 
 245   23:45   0.00   81.1    60    5.8   201     9.3    0.00 
 245   23:50   0.00   81.1    60    6.0   203    10.5    0.00 
 245   23:55   0.00   80.8    61    5.3   189     8.2    0.00 
 246    0:00   0.00   80.7    61    5.5   190    11.0    0.00 
 246    0:05   0.00   80.6    62    4.9   175     9.9    0.00 
 246    0:10   0.00   80.3    62    4.8   145     7.7    0.00 
 246    0:15   0.00   80.1    63    5.6   137     8.8    0.00 
 246    0:20   0.00   80.0    62    6.5   126     8.8    0.00 
 246    0:25   0.00   80.2    60    5.5   135     9.9    0.00 
 246    0:30   0.00   80.0    59    4.0   137     7.7    0.00 
 246    0:35   0.00   79.5    59    5.2   131     8.8    0.00 
 246    0:40   0.00   79.0    61    6.3   132     9.9    0.00 
 246    0:45   0.00   78.7    61    6.0   125     9.9    0.00 
 246    0:50   0.00   78.6    62    6.0   120     9.9    0.00 
 246    0:55   0.00   78.1    63    5.5   117     8.8    0.00 
 246    1:00   0.00   78.0    63    6.4   112     8.8    0.00 
 246    1:05   0.00   78.2    62    5.8   113     8.8    0.00 
 246    1:10   0.00   78.2    62    5.1   104     7.7    0.00 
 246    1:15   0.00   78.0    63    5.4   111     8.8    0.00 
 246    1:20   0.00   78.1    63    5.1   115     7.1    0.00 
 246    1:25   0.00   78.3    62    5.5   117     7.7    0.00 
 246    1:30   0.00   77.7    64    5.2   108     7.1    0.00 
 246    1:35   0.00   77.7    63    5.9   113     8.2    0.00 
 246    1:40   0.00   78.0    63    7.1   116     9.3    0.00 
 246    1:45   0.00   78.2    62    7.0   118     8.8    0.00 
 246    1:50   0.00   78.1    62    6.3   129     9.3    0.00 
 246    1:55   0.00   78.0    62    5.2   126     7.7    0.00 
 246    2:00   0.00   77.6    63    5.3   131     7.7    0.00 
 246    2:05   0.00   77.0    64    4.4   126     5.4    0.00 
 246    2:10   0.00   76.9    64    3.7   124     7.1    0.00 
 246    2:15   0.00   77.1    63    3.5   141     6.0    0.00 
 246    2:20   0.00   77.1    63    2.5   142     4.3    0.00 
 246    2:25   0.00   77.0    64    2.1   137     3.8    0.00 
 246    2:30   0.00   76.7    64    1.3   155     3.2    0.00 

Return to Weather Top graphs page.


Western Regional Climate Center,wrcc@dri.edu